Time;durP1;ratioP1;P1;durP2;ratioP2;P2;SDS_P1;SDS_P2;PMS_P1;PMS_P2;Temp;Humidity;BMP_temperature;BMP_pressure;BME280_temperature;BME280_humidity;BME280_pressure;Samples;Min_cycle;Max_cycle;Signal;HPM_P1;HPM_P2
2023/07/30 00:02:22;;;;;;;4.53;1.30;;;;;;;;;;5062677;27;87439;-56
2023/07/30 00:04:51;;;;;;;3.10;0.80;;;;;;;;;;5061910;27;90191;-56
2023/07/30 00:07:19;;;;;;;2.67;0.90;;;;;;;;;;5062590;27;89776;-56
2023/07/30 00:09:49;;;;;;;2.70;0.93;;;;;;;;;;5062700;27;87666;-56
2023/07/30 00:12:18;;;;;;;2.40;0.73;;;;;;;;;;5062365;27;89739;-56
2023/07/30 00:14:46;;;;;;;0.97;0.60;;;;;;;;;;5062278;27;89139;-56
2023/07/30 00:17:15;;;;;;;1.90;0.87;;;;;;;;;;5062470;27;88816;-56
2023/07/30 00:19:43;;;;;;;2.07;0.70;;;;;;;;;;5062577;27;87509;-56
2023/07/30 00:22:12;;;;;;;1.43;0.73;;;;;;;;;;5062547;27;89656;-56
2023/07/30 00:24:40;;;;;;;1.00;0.70;;;;;;;;;;5062465;27;88748;-56
2023/07/30 00:27:10;;;;;;;4.03;0.80;;;;;;;;;;5062304;27;87319;-56
2023/07/30 00:29:39;;;;;;;2.30;0.90;;;;;;;;;;5072606;27;87954;-56
2023/07/30 00:32:08;;;;;;;0.90;0.70;;;;;;;;;;5082672;27;88268;-56
2023/07/30 00:34:36;;;;;;;1.03;0.60;;;;;;;;;;5082384;27;89096;-57
2023/07/30 00:37:05;;;;;;;2.77;0.93;;;;;;;;;;5082786;27;89038;-56
2023/07/30 00:39:35;;;;;;;2.17;1.00;;;;;;;;;;5083111;27;87609;-56
2023/07/30 00:42:04;;;;;;;0.90;0.53;;;;;;;;;;5081993;27;89589;-57
2023/07/30 00:44:34;;;;;;;1.20;0.67;;;;;;;;;;5082440;27;89612;-56
2023/07/30 00:47:03;;;;;;;1.87;0.97;;;;;;;;;;5082690;27;88761;-56
2023/07/30 00:49:33;;;;;;;1.27;0.70;;;;;;;;;;5082659;27;87483;-56
2023/07/30 00:52:02;;;;;;;3.13;0.83;;;;;;;;;;5081649;27;89757;-56
2023/07/30 00:54:30;;;;;;;2.13;0.80;;;;;;;;;;5081938;27;90390;-56
2023/07/30 00:56:59;;;;;;;0.93;0.50;;;;;;;;;;5082260;27;90280;-56
2023/07/30 00:59:27;;;;;;;2.57;0.90;;;;;;;;;;5082541;27;87371;-57
2023/07/30 01:01:57;;;;;;;2.97;0.60;;;;;;;;;;5082281;27;89591;-57
2023/07/30 01:04:26;;;;;;;1.43;0.60;;;;;;;;;;5082064;27;89003;-57
2023/07/30 01:06:55;;;;;;;1.00;0.70;;;;;;;;;;5082017;27;88837;-57
2023/07/30 01:09:23;;;;;;;1.70;0.73;;;;;;;;;;5082713;27;87612;-56
2023/07/30 01:11:52;;;;;;;2.90;0.77;;;;;;;;;;5082524;27;92467;-57
2023/07/30 01:14:21;;;;;;;3.10;1.00;;;;;;;;;;5082119;27;88218;-57
2023/07/30 01:16:50;;;;;;;0.60;0.60;;;;;;;;;;5082027;27;88386;-56
2023/07/30 01:19:20;;;;;;;0.83;0.73;;;;;;;;;;5081357;27;87849;-56
2023/07/30 01:21:50;;;;;;;1.47;0.50;;;;;;;;;;5081898;27;89577;-56
2023/07/30 01:24:19;;;;;;;1.60;0.80;;;;;;;;;;5082309;27;89982;-57
2023/07/30 01:26:48;;;;;;;2.53;0.60;;;;;;;;;;5082075;27;88817;-56
2023/07/30 01:29:18;;;;;;;1.93;0.60;;;;;;;;;;5082199;27;87600;-56
2023/07/30 01:31:47;;;;;;;3.97;0.43;;;;;;;;;;5081220;27;89579;-57
2023/07/30 01:34:15;;;;;;;2.63;0.90;;;;;;;;;;5081970;27;89102;-56
2023/07/30 01:36:44;;;;;;;2.00;0.90;;;;;;;;;;5082065;27;88585;-56
2023/07/30 01:39:14;;;;;;;1.30;0.67;;;;;;;;;;5082214;27;87379;-56
2023/07/30 01:41:42;;;;;;;1.60;0.40;;;;;;;;;;5081829;27;89631;-56
2023/07/30 01:44:11;;;;;;;1.17;0.50;;;;;;;;;;5080432;27;89750;-56
2023/07/30 01:46:40;;;;;;;3.50;0.37;;;;;;;;;;5081349;27;90211;-56
2023/07/30 01:49:08;;;;;;;1.10;0.67;;;;;;;;;;5082035;27;87411;-56
2023/07/30 01:51:37;;;;;;;1.53;0.80;;;;;;;;;;5081760;27;90317;-56
2023/07/30 01:54:08;;;;;;;2.33;0.70;;;;;;;;;;5081653;27;89042;-57
2023/07/30 01:56:37;;;;;;;1.30;0.53;;;;;;;;;;5082033;27;89697;-56
2023/07/30 01:59:06;;;;;;;1.47;0.43;;;;;;;;;;5081813;27;87589;-56
2023/07/30 02:01:37;;;;;;;1.77;0.70;;;;;;;;;;5082082;27;89019;-56
2023/07/30 02:04:06;;;;;;;1.87;0.80;;;;;;;;;;5085078;27;89502;-56
2023/07/30 02:06:34;;;;;;;1.37;0.63;;;;;;;;;;5085220;27;87739;-56
2023/07/30 02:09:03;;;;;;;1.53;0.73;;;;;;;;;;5082551;27;87952;-56
2023/07/30 02:11:34;;;;;;;3.30;0.50;;;;;;;;;;5080197;27;88542;-56
2023/07/30 02:14:05;;;;;;;3.60;0.83;;;;;;;;;;5088402;27;87859;-57
2023/07/30 02:16:34;;;;;;;2.83;0.93;;;;;;;;;;5083743;27;88008;-57
2023/07/30 02:19:04;;;;;;;3.97;0.90;;;;;;;;;;5094727;27;87475;-59
2023/07/30 02:21:36;;;;;;;4.93;0.70;;;;;;;;;;5083438;27;89665;-54
2023/07/30 02:24:09;;;;;;;9.17;1.27;;;;;;;;;;5083888;27;90698;-57
2023/07/30 02:26:39;;;;;;;2.80;0.93;;;;;;;;;;5063616;27;88875;-53
2023/07/30 02:29:09;;;;;;;0.40;0.40;;;;;;;;;;5071013;27;88799;-57
2023/07/30 02:31:38;;;;;;;1.33;0.57;;;;;;;;;;5075318;27;90564;-58
2023/07/30 02:34:09;;;;;;;1.83;0.87;;;;;;;;;;5084094;27;88789;-58
2023/07/30 02:36:37;;;;;;;1.07;0.90;;;;;;;;;;5082646;27;90000;-58
2023/07/30 02:39:06;;;;;;;0.83;0.37;;;;;;;;;;5080406;27;87628;-58
2023/07/30 02:41:34;;;;;;;4.00;1.30;;;;;;;;;;5074156;27;89485;-58
2023/07/30 02:44:04;;;;;;;5.47;1.93;;;;;;;;;;5081206;27;89096;-58
2023/07/30 02:46:34;;;;;;;4.83;2.70;;;;;;;;;;5084028;27;88959;-57
2023/07/30 02:49:05;;;;;;;10.13;3.43;;;;;;;;;;5076519;27;87917;-58
2023/07/30 02:51:34;;;;;;;11.47;2.80;;;;;;;;;;5082139;27;89649;-58
2023/07/30 02:54:05;;;;;;;10.80;3.33;;;;;;;;;;5089211;27;88998;-58
2023/07/30 02:56:33;;;;;;;6.43;2.23;;;;;;;;;;5101170;27;88663;-58
2023/07/30 02:59:02;;;;;;;5.03;2.30;;;;;;;;;;5077407;27;87993;-58
2023/07/30 03:01:32;;;;;;;6.87;3.13;;;;;;;;;;5082839;27;89767;-58
2023/07/30 03:04:02;;;;;;;4.30;2.10;;;;;;;;;;5079116;27;89449;-57
2023/07/30 03:06:31;;;;;;;8.23;3.73;;;;;;;;;;5076229;27;89628;-55
2023/07/30 03:08:59;;;;;;;9.53;2.70;;;;;;;;;;5086620;27;87918;-55
2023/07/30 03:11:30;;;;;;;12.27;3.10;;;;;;;;;;5084098;27;87999;-59
2023/07/30 03:14:02;;;;;;;62.03;20.30;;;;;;;;;;5082214;27;89127;-58
2023/07/30 03:16:30;;;;;;;68.20;21.07;;;;;;;;;;5082231;27;89042;-54
2023/07/30 03:18:59;;;;;;;58.03;18.23;;;;;;;;;;5082551;27;87605;-56
2023/07/30 03:21:29;;;;;;;51.30;18.73;;;;;;;;;;5067081;27;89555;-59
2023/07/30 03:23:57;;;;;;;31.47;13.73;;;;;;;;;;5062024;27;89844;-56
2023/07/30 03:26:26;;;;;;;50.30;13.40;;;;;;;;;;5090235;27;89858;-55
2023/07/30 03:28:54;;;;;;;27.90;11.30;;;;;;;;;;5071642;27;87934;-58
2023/07/30 03:31:23;;;;;;;43.73;14.23;;;;;;;;;;5077879;27;89558;-58
2023/07/30 03:33:51;;;;;;;29.07;10.97;;;;;;;;;;5069556;27;89250;-58
2023/07/30 03:36:22;;;;;;;27.30;10.07;;;;;;;;;;5065867;27;89044;-58
2023/07/30 03:38:54;;;;;;;27.20;11.80;;;;;;;;;;5080883;27;87381;-58
2023/07/30 03:41:22;;;;;;;31.20;10.17;;;;;;;;;;5083167;27;90056;-58
2023/07/30 03:43:51;;;;;;;24.53;9.60;;;;;;;;;;5081139;27;88811;-58
2023/07/30 03:46:20;;;;;;;23.50;9.17;;;;;;;;;;5080683;27;89368;-58
2023/07/30 03:48:49;;;;;;;18.03;8.23;;;;;;;;;;5081007;27;89295;-58
2023/07/30 03:51:17;;;;;;;20.40;8.50;;;;;;;;;;5083508;27;88637;-58
2023/07/30 03:53:46;;;;;;;17.17;8.23;;;;;;;;;;5076342;27;89960;-58
2023/07/30 03:56:15;;;;;;;16.23;8.23;;;;;;;;;;5072511;27;88944;-58
2023/07/30 03:58:44;;;;;;;20.43;8.37;;;;;;;;;;5072043;27;88317;-58
2023/07/30 04:01:14;;;;;;;18.57;7.97;;;;;;;;;;5074405;27;89459;-58
2023/07/30 04:03:43;;;;;;;21.43;8.20;;;;;;;;;;5083192;27;89055;-58
2023/07/30 04:06:12;;;;;;;19.13;7.20;;;;;;;;;;5083306;27;88865;-58
2023/07/30 04:08:40;;;;;;;20.20;8.27;;;;;;;;;;5083619;27;87453;-58
2023/07/30 04:11:09;;;;;;;21.93;7.63;;;;;;;;;;5087438;27;89508;-58
2023/07/30 04:13:40;;;;;;;23.33;6.27;;;;;;;;;;5096447;27;90408;-58
2023/07/30 04:16:09;;;;;;;14.53;7.23;;;;;;;;;;5082979;27;89725;-58
2023/07/30 04:18:37;;;;;;;13.00;5.83;;;;;;;;;;5083185;27;87728;-58
2023/07/30 04:21:08;;;;;;;16.50;5.57;;;;;;;;;;5082953;27;89600;-58
2023/07/30 04:23:36;;;;;;;15.30;5.97;;;;;;;;;;5083125;27;89194;-58
2023/07/30 04:26:05;;;;;;;14.33;5.20;;;;;;;;;;5081371;27;88958;-58
2023/07/30 04:28:33;;;;;;;21.93;6.83;;;;;;;;;;5079053;27;87546;-58
2023/07/30 04:31:03;;;;;;;11.73;5.03;;;;;;;;;;5082656;27;89684;-58
2023/07/30 04:33:32;;;;;;;13.43;6.07;;;;;;;;;;5083670;27;89195;-58
2023/07/30 04:36:00;;;;;;;13.20;4.60;;;;;;;;;;5082792;27;88706;-58
2023/07/30 04:38:29;;;;;;;12.63;5.27;;;;;;;;;;5082334;27;87907;-58
2023/07/30 04:40:59;;;;;;;12.60;4.47;;;;;;;;;;5082403;27;89737;-58
2023/07/30 04:43:27;;;;;;;9.30;4.33;;;;;;;;;;5083941;27;89241;-58
2023/07/30 04:45:56;;;;;;;6.80;3.90;;;;;;;;;;5062027;27;88933;-58
2023/07/30 04:48:26;;;;;;;13.07;4.70;;;;;;;;;;5061767;27;87623;-58
2023/07/30 04:50:54;;;;;;;11.77;4.17;;;;;;;;;;5061744;27;90772;-58
2023/07/30 04:53:23;;;;;;;7.93;3.70;;;;;;;;;;5071537;27;88964;-58
2023/07/30 04:55:56;;;;;;;10.10;3.37;;;;;;;;;;5079918;27;88803;-58
2023/07/30 04:58:24;;;;;;;10.73;4.00;;;;;;;;;;5082776;27;87473;-58
2023/07/30 05:00:53;;;;;;;8.60;3.40;;;;;;;;;;5081446;27;89675;-58
2023/07/30 05:03:22;;;;;;;13.13;4.17;;;;;;;;;;5081813;27;89845;-59
2023/07/30 05:05:51;;;;;;;11.90;3.80;;;;;;;;;;5082091;27;89914;-58
2023/07/30 05:08:20;;;;;;;8.93;3.73;;;;;;;;;;5082500;27;87622;-58
2023/07/30 05:10:48;;;;;;;6.87;3.23;;;;;;;;;;5081674;27;89889;-58
2023/07/30 05:13:17;;;;;;;6.13;3.23;;;;;;;;;;5100349;27;88986;-58
2023/07/30 05:15:46;;;;;;;9.07;3.67;;;;;;;;;;5079118;27;88820;-58
2023/07/30 05:18:14;;;;;;;9.57;3.93;;;;;;;;;;5063254;27;87317;-58
2023/07/30 05:20:43;;;;;;;5.53;2.73;;;;;;;;;;5082260;27;89575;-58
2023/07/30 05:23:12;;;;;;;8.77;3.10;;;;;;;;;;5082829;27;87248;-58
2023/07/30 05:25:41;;;;;;;7.07;3.20;;;;;;;;;;5082059;27;88747;-58
2023/07/30 05:28:09;;;;;;;12.00;3.80;;;;;;;;;;5081936;27;87921;-58
2023/07/30 05:30:38;;;;;;;4.70;3.10;;;;;;;;;;5081968;27;89675;-58
2023/07/30 05:33:06;;;;;;;7.83;2.57;;;;;;;;;;5081245;27;89590;-58
2023/07/30 05:35:35;;;;;;;9.70;3.17;;;;;;;;;;5079449;27;89113;-58
2023/07/30 05:38:04;;;;;;;7.10;3.07;;;;;;;;;;5066655;27;87508;-58
2023/07/30 05:40:34;;;;;;;6.97;3.17;;;;;;;;;;5061330;27;89684;-58
2023/07/30 05:43:05;;;;;;;6.03;2.87;;;;;;;;;;5066683;27;89181;-58
2023/07/30 05:45:35;;;;;;;5.20;2.27;;;;;;;;;;5082023;27;88913;-58
2023/07/30 05:48:03;;;;;;;6.10;3.20;;;;;;;;;;5081172;27;87649;-58
2023/07/30 05:50:32;;;;;;;4.50;2.53;;;;;;;;;;5081612;27;89636;-59
2023/07/30 05:53:00;;;;;;;4.63;2.60;;;;;;;;;;5070146;27;89905;-58
2023/07/30 05:55:29;;;;;;;3.40;2.20;;;;;;;;;;5083034;27;91489;-61
2023/07/30 05:57:59;;;;;;;5.90;2.30;;;;;;;;;;5077823;27;87885;-58
2023/07/30 06:00:28;;;;;;;4.77;2.27;;;;;;;;;;5085121;27;89620;-58
2023/07/30 06:02:56;;;;;;;3.40;2.23;;;;;;;;;;5094513;27;89247;-58
2023/07/30 06:05:25;;;;;;;6.67;2.67;;;;;;;;;;5074604;27;87896;-58
2023/07/30 06:07:53;;;;;;;8.83;2.67;;;;;;;;;;5079434;27;87634;-58
2023/07/30 06:10:22;;;;;;;6.87;2.30;;;;;;;;;;5076195;27;88336;-58
2023/07/30 06:12:50;;;;;;;6.77;2.80;;;;;;;;;;5067411;27;89257;-58
2023/07/30 06:15:20;;;;;;;6.33;2.40;;;;;;;;;;5081116;27;88859;-58
2023/07/30 06:17:49;;;;;;;5.33;3.00;;;;;;;;;;5081172;27;87859;-58
2023/07/30 06:20:18;;;;;;;6.93;2.47;;;;;;;;;;5075483;27;89790;-58
2023/07/30 06:22:47;;;;;;;2.17;1.73;;;;;;;;;;5065946;27;88171;-58
2023/07/30 06:25:15;;;;;;;7.40;2.47;;;;;;;;;;5060794;27;88518;-58
2023/07/30 06:27:44;;;;;;;7.33;2.90;;;;;;;;;;5063040;27;87654;-59
2023/07/30 06:30:13;;;;;;;6.00;2.07;;;;;;;;;;5080514;27;90059;-58
2023/07/30 06:32:42;;;;;;;7.40;2.27;;;;;;;;;;5079438;27;89479;-58
2023/07/30 06:35:11;;;;;;;5.77;2.57;;;;;;;;;;5081162;27;88790;-59
2023/07/30 06:37:40;;;;;;;4.13;2.10;;;;;;;;;;5081022;27;87977;-58
2023/07/30 06:40:09;;;;;;;3.40;2.10;;;;;;;;;;5080957;27;89337;-58
2023/07/30 06:42:37;;;;;;;3.13;1.90;;;;;;;;;;5075293;27;90107;-58
2023/07/30 06:45:06;;;;;;;4.97;2.30;;;;;;;;;;5081338;27;88717;-58
2023/07/30 06:47:35;;;;;;;5.47;2.53;;;;;;;;;;5079509;27;88745;-58
2023/07/30 06:50:08;;;;;;;8.47;2.13;;;;;;;;;;5090042;27;89614;-59
2023/07/30 06:52:36;;;;;;;7.03;2.53;;;;;;;;;;5097361;27;88981;-58
2023/07/30 06:55:05;;;;;;;6.53;1.70;;;;;;;;;;5081726;27;88867;-58
2023/07/30 06:57:34;;;;;;;4.40;1.70;;;;;;;;;;5089453;27;87486;-58
2023/07/30 07:00:03;;;;;;;2.70;1.67;;;;;;;;;;5105246;27;89597;-58
2023/07/30 07:02:32;;;;;;;4.07;2.00;;;;;;;;;;5091874;27;89149;-58
2023/07/30 07:05:01;;;;;;;4.27;1.80;;;;;;;;;;5067086;27;88640;-58
2023/07/30 07:07:31;;;;;;;4.50;2.23;;;;;;;;;;5077946;27;88006;-58
2023/07/30 07:10:00;;;;;;;3.67;1.53;;;;;;;;;;5084325;27;89743;-58
2023/07/30 07:12:28;;;;;;;4.47;1.50;;;;;;;;;;5085130;27;89008;-58
2023/07/30 07:14:58;;;;;;;3.53;1.73;;;;;;;;;;5084102;27;88709;-58
2023/07/30 07:17:26;;;;;;;7.30;1.63;;;;;;;;;;5073126;27;87762;-58
2023/07/30 07:19:55;;;;;;;3.73;1.30;;;;;;;;;;5063089;27;89859;-58
2023/07/30 07:22:24;;;;;;;6.27;1.80;;;;;;;;;;5082841;27;89148;-58
2023/07/30 07:24:54;;;;;;;3.27;1.47;;;;;;;;;;5104759;27;88764;-58
2023/07/30 07:27:23;;;;;;;2.53;1.47;;;;;;;;;;5104962;27;87618;-58
2023/07/30 07:29:52;;;;;;;2.37;1.40;;;;;;;;;;5094678;27;89452;-58
2023/07/30 07:32:20;;;;;;;3.83;1.40;;;;;;;;;;5068917;27;89852;-58
2023/07/30 07:34:49;;;;;;;1.83;1.60;;;;;;;;;;5096104;27;89776;-58
2023/07/30 07:37:18;;;;;;;5.90;2.00;;;;;;;;;;5104543;27;87614;-58
2023/07/30 07:39:47;;;;;;;2.23;1.40;;;;;;;;;;5104530;27;89678;-58
2023/07/30 07:42:17;;;;;;;2.80;1.50;;;;;;;;;;5065588;27;89229;-58
2023/07/30 07:44:46;;;;;;;3.40;1.47;;;;;;;;;;5091510;27;88521;-58
2023/07/30 07:47:15;;;;;;;4.30;1.67;;;;;;;;;;5104449;27;87338;-58
2023/07/30 07:49:43;;;;;;;2.73;1.67;;;;;;;;;;5081279;27;89783;-58
2023/07/30 07:52:12;;;;;;;7.07;1.63;;;;;;;;;;5074855;27;88955;-58
2023/07/30 07:54:41;;;;;;;6.70;1.80;;;;;;;;;;5081561;27;88860;-58
2023/07/30 07:57:10;;;;;;;3.63;1.50;;;;;;;;;;5082986;27;87799;-58
2023/07/30 07:59:41;;;;;;;3.60;1.53;;;;;;;;;;5083196;27;89679;-58
2023/07/30 08:02:10;;;;;;;2.20;1.07;;;;;;;;;;5074108;27;89018;-59
2023/07/30 08:04:38;;;;;;;4.87;1.60;;;;;;;;;;5064815;27;88857;-58
2023/07/30 08:07:07;;;;;;;2.47;1.27;;;;;;;;;;5095387;27;87527;-58
2023/07/30 08:09:35;;;;;;;1.70;0.90;;;;;;;;;;5083084;27;89619;-59
2023/07/30 08:12:04;;;;;;;4.83;1.30;;;;;;;;;;5083142;27;89061;-59
2023/07/30 08:14:33;;;;;;;3.03;1.40;;;;;;;;;;5081042;27;88774;-59
2023/07/30 08:17:02;;;;;;;2.40;1.10;;;;;;;;;;5084211;27;87825;-58
2023/07/30 08:19:31;;;;;;;2.63;0.90;;;;;;;;;;5077212;27;88601;-56
2023/07/30 08:22:00;;;;;;;5.37;1.33;;;;;;;;;;5077146;27;90023;-54
2023/07/30 08:24:28;;;;;;;1.77;0.90;;;;;;;;;;5064301;27;89796;-56
2023/07/30 08:26:57;;;;;;;1.13;0.80;;;;;;;;;;5093293;27;87573;-55
2023/07/30 08:29:25;;;;;;;2.20;1.00;;;;;;;;;;5089106;27;89563;-56
2023/07/30 08:31:54;;;;;;;5.87;1.10;;;;;;;;;;5067804;27;89498;-54
2023/07/30 08:34:26;;;;;;;2.60;1.00;;;;;;;;;;5085517;27;87537;-54
2023/07/30 08:36:55;;;;;;;1.63;0.80;;;;;;;;;;5082151;27;87408;-55
2023/07/30 08:39:23;;;;;;;3.50;1.30;;;;;;;;;;5078399;27;89848;-56
2023/07/30 08:41:52;;;;;;;4.70;1.07;;;;;;;;;;5078591;27;89020;-54
2023/07/30 08:44:20;;;;;;;3.80;1.20;;;;;;;;;;5081857;27;88744;-55
2023/07/30 08:46:49;;;;;;;1.37;0.73;;;;;;;;;;5067464;27;88775;-54
2023/07/30 08:49:20;;;;;;;4.70;1.10;;;;;;;;;;5064835;27;89566;-55
2023/07/30 08:51:50;;;;;;;0.90;0.80;;;;;;;;;;5077483;27;89139;-54
2023/07/30 08:54:19;;;;;;;3.30;0.93;;;;;;;;;;5074197;27;88783;-55
2023/07/30 08:56:49;;;;;;;4.23;1.27;;;;;;;;;;5066735;27;87690;-56
2023/07/30 08:59:17;;;;;;;1.37;0.90;;;;;;;;;;5078951;27;89537;-56
2023/07/30 09:01:46;;;;;;;1.37;0.87;;;;;;;;;;5070143;27;88941;-56
2023/07/30 09:04:17;;;;;;;4.80;0.80;;;;;;;;;;5060448;27;88756;-56
2023/07/30 09:06:45;;;;;;;2.30;1.23;;;;;;;;;;5071893;27;88400;-56
2023/07/30 09:09:17;;;;;;;3.67;0.80;;;;;;;;;;5082330;27;89963;-57
2023/07/30 09:11:45;;;;;;;0.47;0.47;;;;;;;;;;5081032;27;90047;-55
2023/07/30 09:14:14;;;;;;;1.57;0.57;;;;;;;;;;5081852;27;89758;-54
2023/07/30 09:16:42;;;;;;;3.33;0.70;;;;;;;;;;5082047;27;87653;-56
2023/07/30 09:19:11;;;;;;;1.23;0.60;;;;;;;;;;5082204;27;89514;-55
2023/07/30 09:21:39;;;;;;;2.70;0.80;;;;;;;;;;5082047;27;89048;-56
2023/07/30 09:24:09;;;;;;;2.13;0.73;;;;;;;;;;5082095;27;88783;-57
2023/07/30 09:26:45;;;;;;;3.30;0.63;;;;;;;;;;5081975;27;87587;-56
2023/07/30 09:29:14;;;;;;;2.50;0.97;;;;;;;;;;5082173;27;90505;-56
2023/07/30 09:31:48;;;;;;;2.30;0.70;;;;;;;;;;5081713;27;88908;-56
2023/07/30 09:34:17;;;;;;;1.70;0.60;;;;;;;;;;5081839;27;88799;-55
2023/07/30 09:36:46;;;;;;;1.37;0.80;;;;;;;;;;5081598;27;87797;-55
2023/07/30 09:39:18;;;;;;;2.77;1.00;;;;;;;;;;5081675;27;89610;-55
2023/07/30 09:41:48;;;;;;;1.43;0.80;;;;;;;;;;5081843;27;89347;-55
2023/07/30 09:44:17;;;;;;;0.70;0.70;;;;;;;;;;5080604;27;88855;-55
2023/07/30 09:46:47;;;;;;;2.00;0.50;;;;;;;;;;5081506;27;87355;-56
2023/07/30 09:49:15;;;;;;;1.57;1.00;;;;;;;;;;5081471;27;89470;-55
2023/07/30 09:51:44;;;;;;;3.03;0.70;;;;;;;;;;5081468;27;88974;-55
2023/07/30 09:54:13;;;;;;;1.33;0.70;;;;;;;;;;5081821;27;88875;-55
2023/07/30 09:56:41;;;;;;;0.97;0.50;;;;;;;;;;5081628;27;87270;-56
2023/07/30 09:59:11;;;;;;;3.60;0.60;;;;;;;;;;5081120;27;89452;-55
2023/07/30 10:01:40;;;;;;;3.37;1.00;;;;;;;;;;5080950;27;88459;-56
2023/07/30 10:04:09;;;;;;;0.43;0.40;;;;;;;;;;5081428;27;90030;-56
2023/07/30 10:06:39;;;;;;;0.60;0.43;;;;;;;;;;5081562;27;87613;-55
2023/07/30 10:09:07;;;;;;;3.43;0.50;;;;;;;;;;5081314;27;89235;-56
2023/07/30 10:11:36;;;;;;;0.53;0.50;;;;;;;;;;5081032;27;89072;-55
2023/07/30 10:14:04;;;;;;;2.37;1.03;;;;;;;;;;5080968;27;88747;-55
2023/07/30 10:16:34;;;;;;;8.13;0.80;;;;;;;;;;5081653;27;87732;-55
2023/07/30 10:19:03;;;;;;;2.37;0.57;;;;;;;;;;5081086;27;88855;-54
2023/07/30 10:21:33;;;;;;;3.80;0.93;;;;;;;;;;5081302;27;88905;-55
2023/07/30 10:24:03;;;;;;;2.10;0.60;;;;;;;;;;5082416;27;88709;-55
2023/07/30 10:26:32;;;;;;;1.13;0.50;;;;;;;;;;5084368;27;87702;-55
2023/07/30 10:29:24;;;;;;;1.40;0.70;;;;;;;;;;5084488;27;89673;-56
2023/07/30 10:31:55;;;;;;;0.87;0.67;;;;;;;;;;5048955;27;89299;-56
2023/07/30 10:34:24;;;;;;;4.47;1.20;;;;;;;;;;5064041;27;87745;-56
2023/07/30 10:36:52;;;;;;;0.77;0.70;;;;;;;;;;5064324;27;87525;-55
2023/07/30 10:39:22;;;;;;;2.00;1.10;;;;;;;;;;5063927;27;89667;-55
2023/07/30 10:41:51;;;;;;;1.80;1.20;;;;;;;;;;5063951;27;89034;-55
2023/07/30 10:44:20;;;;;;;3.67;1.40;;;;;;;;;;5063562;27;88720;-54
2023/07/30 10:46:48;;;;;;;2.03;1.03;;;;;;;;;;5064181;27;87611;-56
2023/07/30 10:49:18;;;;;;;6.03;1.73;;;;;;;;;;5063712;27;89783;-56
2023/07/30 10:51:47;;;;;;;3.10;1.90;;;;;;;;;;5063370;27;90039;-56
2023/07/30 10:54:16;;;;;;;3.00;1.63;;;;;;;;;;5063754;27;89773;-56
2023/07/30 10:56:45;;;;;;;5.23;1.90;;;;;;;;;;5064038;27;87602;-55
2023/07/30 10:59:13;;;;;;;5.90;2.00;;;;;;;;;;5063242;27;89634;-55
2023/07/30 11:01:42;;;;;;;2.80;1.80;;;;;;;;;;5063622;27;89217;-55
2023/07/30 11:04:11;;;;;;;2.97;1.90;;;;;;;;;;5063772;27;88929;-56
2023/07/30 11:06:41;;;;;;;3.93;1.80;;;;;;;;;;5064006;27;87587;-56
2023/07/30 11:09:19;;;;;;;3.97;1.77;;;;;;;;;;5063667;27;89593;-55
2023/07/30 11:11:47;;;;;;;3.83;2.10;;;;;;;;;;5063379;27;89047;-55
2023/07/30 11:14:16;;;;;;;2.70;1.97;;;;;;;;;;5063403;27;88854;-55
2023/07/30 11:16:49;;;;;;;3.80;2.00;;;;;;;;;;5063198;27;87849;-56
2023/07/30 11:19:17;;;;;;;3.33;2.00;;;;;;;;;;5062997;27;89998;-56
2023/07/30 11:21:48;;;;;;;4.37;2.07;;;;;;;;;;5063395;27;89412;-55
2023/07/30 11:24:19;;;;;;;2.93;1.50;;;;;;;;;;5063378;27;89140;-56
2023/07/30 11:26:48;;;;;;;3.63;1.93;;;;;;;;;;5063199;27;87666;-56
2023/07/30 11:29:17;;;;;;;3.20;1.70;;;;;;;;;;5061982;27;88677;-56
2023/07/30 11:31:45;;;;;;;2.90;1.90;;;;;;;;;;5063351;27;88978;-55
2023/07/30 11:34:14;;;;;;;4.47;2.00;;;;;;;;;;5062669;27;89099;-56
2023/07/30 11:36:42;;;;;;;2.73;1.93;;;;;;;;;;5063479;27;87642;-56
2023/07/30 11:39:12;;;;;;;2.63;1.57;;;;;;;;;;5063071;27;89587;-56
2023/07/30 11:41:40;;;;;;;4.23;1.90;;;;;;;;;;5062187;27;89658;-56
2023/07/30 11:44:09;;;;;;;4.03;1.87;;;;;;;;;;5061936;27;89808;-55
2023/07/30 11:46:38;;;;;;;1.73;1.37;;;;;;;;;;5063128;27;87650;-56
2023/07/30 11:49:12;;;;;;;3.50;1.80;;;;;;;;;;5062671;27;89658;-54
2023/07/30 11:51:41;;;;;;;5.40;1.80;;;;;;;;;;5062716;27;88779;-54
2023/07/30 11:54:19;;;;;;;3.23;1.47;;;;;;;;;;5062925;27;88732;-55
2023/07/30 11:56:48;;;;;;;1.90;1.63;;;;;;;;;;5062605;27;87614;-54
2023/07/30 11:59:16;;;;;;;5.03;1.70;;;;;;;;;;5062736;27;89752;-55
2023/07/30 12:01:45;;;;;;;2.53;1.70;;;;;;;;;;5062672;27;89048;-55
2023/07/30 12:04:13;;;;;;;3.70;1.57;;;;;;;;;;5062658;27;88845;-55
2023/07/30 12:06:42;;;;;;;1.67;1.57;;;;;;;;;;5062407;27;87847;-56
2023/07/30 12:09:15;;;;;;;3.37;1.60;;;;;;;;;;5062347;27;89613;-55
2023/07/30 12:11:51;;;;;;;2.90;1.80;;;;;;;;;;5062540;27;89104;-55
2023/07/30 12:14:19;;;;;;;3.23;1.60;;;;;;;;;;5062367;27;88820;-55
2023/07/30 12:16:48;;;;;;;4.17;1.80;;;;;;;;;;5062726;27;87623;-54
2023/07/30 12:19:16;;;;;;;2.33;1.50;;;;;;;;;;5062318;27;88901;-54
2023/07/30 12:21:45;;;;;;;2.97;2.10;;;;;;;;;;5061951;27;89081;-55
2023/07/30 12:24:13;;;;;;;2.00;1.60;;;;;;;;;;5059369;27;89077;-55
2023/07/30 12:26:43;;;;;;;6.00;1.97;;;;;;;;;;5059937;27;87902;-55
2023/07/30 12:29:12;;;;;;;3.63;2.47;;;;;;;;;;5059449;27;90692;-54
2023/07/30 12:31:40;;;;;;;4.47;2.40;;;;;;;;;;5058681;27;90062;-56
2023/07/30 12:34:09;;;;;;;5.27;1.80;;;;;;;;;;5075020;27;89763;-55
2023/07/30 12:36:38;;;;;;;6.17;2.70;;;;;;;;;;5079767;27;87726;-55
2023/07/30 12:39:07;;;;;;;3.33;2.50;;;;;;;;;;5079188;27;90198;-55
2023/07/30 12:41:37;;;;;;;3.20;2.00;;;;;;;;;;5079552;27;87726;-55
2023/07/30 12:44:09;;;;;;;3.70;2.40;;;;;;;;;;5078623;27;87881;-54
2023/07/30 12:46:38;;;;;;;3.97;2.07;;;;;;;;;;5078349;27;87501;-54
2023/07/30 12:49:07;;;;;;;4.37;2.50;;;;;;;;;;5079321;27;89423;-55
2023/07/30 12:51:35;;;;;;;2.53;1.87;;;;;;;;;;5079204;27;89182;-54
2023/07/30 12:54:04;;;;;;;4.77;2.63;;;;;;;;;;5078649;27;89031;-54
2023/07/30 12:56:33;;;;;;;4.90;2.50;;;;;;;;;;5078945;27;87834;-54
2023/07/30 12:59:04;;;;;;;3.50;2.27;;;;;;;;;;5079180;27;89659;-54
2023/07/30 13:01:34;;;;;;;4.47;2.53;;;;;;;;;;5079107;27;89152;-55
2023/07/30 13:04:03;;;;;;;2.03;1.80;;;;;;;;;;5079491;27;90002;-55
2023/07/30 13:06:31;;;;;;;2.77;1.83;;;;;;;;;;5079437;27;87625;-56
2023/07/30 13:09:00;;;;;;;4.37;2.43;;;;;;;;;;5078497;27;89690;-56
2023/07/30 13:11:28;;;;;;;2.53;1.77;;;;;;;;;;5079250;27;87905;-56
2023/07/30 13:13:58;;;;;;;4.20;2.20;;;;;;;;;;5079010;27;88939;-56
2023/07/30 13:16:28;;;;;;;2.90;1.90;;;;;;;;;;5078718;27;87728;-54
2023/07/30 13:18:58;;;;;;;4.40;2.00;;;;;;;;;;5078736;27;89736;-55
2023/07/30 13:21:26;;;;;;;7.23;2.70;;;;;;;;;;5077758;27;90157;-54
2023/07/30 13:23:55;;;;;;;3.67;2.23;;;;;;;;;;5078290;27;89842;-56
2023/07/30 13:26:23;;;;;;;5.90;2.30;;;;;;;;;;5078850;27;87543;-55
2023/07/30 13:28:52;;;;;;;2.67;2.20;;;;;;;;;;5078774;27;89849;-56
2023/07/30 13:31:20;;;;;;;3.37;2.30;;;;;;;;;;5078723;27;89013;-55
2023/07/30 13:33:51;;;;;;;4.90;2.53;;;;;;;;;;5078541;27;88874;-55
2023/07/30 13:36:20;;;;;;;5.00;2.20;;;;;;;;;;5079299;27;87536;-56
2023/07/30 13:38:49;;;;;;;4.70;2.03;;;;;;;;;;5078628;27;92837;-54
2023/07/30 13:41:18;;;;;;;2.70;2.20;;;;;;;;;;5078316;27;89201;-55
2023/07/30 13:43:46;;;;;;;3.53;2.37;;;;;;;;;;5077505;27;88680;-55
2023/07/30 13:46:14;;;;;;;5.13;2.60;;;;;;;;;;5078059;27;87879;-55
2023/07/30 13:48:43;;;;;;;4.53;2.83;;;;;;;;;;5078266;27;89643;-55
2023/07/30 13:51:11;;;;;;;3.87;2.50;;;;;;;;;;5078408;27;88903;-56
2023/07/30 13:53:41;;;;;;;3.60;2.50;;;;;;;;;;5078020;27;88635;-56
2023/07/30 13:56:10;;;;;;;4.30;2.50;;;;;;;;;;5078743;27;87854;-56
2023/07/30 13:58:39;;;;;;;3.83;2.67;;;;;;;;;;5080404;27;89682;-56
2023/07/30 14:01:09;;;;;;;3.97;2.50;;;;;;;;;;5081786;27;89150;-56
2023/07/30 14:03:37;;;;;;;6.80;3.17;;;;;;;;;;5082304;27;88937;-56
2023/07/30 14:06:06;;;;;;;4.43;2.80;;;;;;;;;;5082003;27;87696;-55
2023/07/30 14:08:34;;;;;;;6.33;3.30;;;;;;;;;;5081702;27;89623;-55
2023/07/30 14:11:04;;;;;;;4.50;3.07;;;;;;;;;;5081458;27;89873;-57
2023/07/30 14:13:32;;;;;;;4.67;2.03;;;;;;;;;;5081954;27;89685;-57
2023/07/30 14:16:01;;;;;;;5.03;2.73;;;;;;;;;;5082393;27;87648;-55
2023/07/30 14:18:29;;;;;;;3.70;2.27;;;;;;;;;;5081524;27;88678;-55
2023/07/30 14:20:58;;;;;;;3.17;2.17;;;;;;;;;;5081337;27;89304;-55
2023/07/30 14:23:26;;;;;;;3.53;2.73;;;;;;;;;;5081882;27;88660;-55
2023/07/30 14:25:55;;;;;;;5.60;2.53;;;;;;;;;;5082296;27;87621;-55
2023/07/30 14:28:25;;;;;;;2.57;2.00;;;;;;;;;;5081923;27;89794;-55
2023/07/30 14:30:54;;;;;;;5.50;2.53;;;;;;;;;;5081748;27;89300;-56
2023/07/30 14:33:22;;;;;;;3.77;2.00;;;;;;;;;;5081235;27;88750;-56
2023/07/30 14:35:51;;;;;;;4.40;2.13;;;;;;;;;;5081187;27;88179;-55
2023/07/30 14:38:19;;;;;;;5.30;2.40;;;;;;;;;;5081755;27;89483;-55
2023/07/30 14:40:48;;;;;;;3.30;2.30;;;;;;;;;;5081754;27;91107;-55
2023/07/30 14:43:16;;;;;;;2.00;1.80;;;;;;;;;;5080772;27;88756;-55
2023/07/30 14:45:46;;;;;;;3.87;1.93;;;;;;;;;;5081224;27;87704;-55
2023/07/30 14:48:15;;;;;;;3.33;2.13;;;;;;;;;;5081443;27;89840;-55
2023/07/30 14:50:43;;;;;;;4.20;2.10;;;;;;;;;;5081035;27;87874;-55
2023/07/30 14:53:12;;;;;;;4.63;1.87;;;;;;;;;;5081372;27;88775;-55